createdAt,value
2023-03-18T00:02:24.722Z,5.50
2023-03-18T00:04:56.907Z,4.90
2023-03-18T00:07:27.215Z,4.70
2023-03-18T00:09:56.797Z,4.07
2023-03-18T00:12:28.667Z,3.90
2023-03-18T00:14:58.061Z,3.93
2023-03-18T00:17:27.595Z,4.17
2023-03-18T00:20:05.748Z,3.97
2023-03-18T00:22:35.906Z,3.70
2023-03-18T00:25:07.057Z,4.03
2023-03-18T00:27:36.740Z,3.63
2023-03-18T00:30:08.456Z,4.30
2023-03-18T00:32:41.686Z,4.53
2023-03-18T00:35:13.915Z,3.60
2023-03-18T00:37:43.431Z,4.07
2023-03-18T00:40:20.296Z,4.30
2023-03-18T00:42:57.720Z,3.70
2023-03-18T00:45:27.271Z,3.80
2023-03-18T00:47:56.637Z,3.70
2023-03-18T00:50:28.602Z,5.03
2023-03-18T00:52:57.980Z,3.43
2023-03-18T00:55:27.394Z,3.93
2023-03-18T00:57:57.375Z,4.33
2023-03-18T01:00:29.218Z,4.30
2023-03-18T01:02:59.388Z,3.53
2023-03-18T01:05:31.591Z,3.83
2023-03-18T01:08:01.853Z,4.00
2023-03-18T01:10:31.561Z,3.47
2023-03-18T01:13:01.364Z,4.17
2023-03-18T01:15:30.984Z,4.80
2023-03-18T01:18:00.986Z,3.97
2023-03-18T01:20:33.422Z,4.30
2023-03-18T01:23:03.457Z,4.27
2023-03-18T01:25:33.746Z,4.53
2023-03-18T01:28:03.181Z,4.00
2023-03-18T01:30:34.837Z,3.93
2023-03-18T01:33:04.929Z,4.07
2023-03-18T01:35:37.201Z,3.80
2023-03-18T01:38:07.524Z,3.70
2023-03-18T01:40:40.590Z,4.20
2023-03-18T01:43:17.783Z,3.80
2023-03-18T01:45:51.439Z,3.53
2023-03-18T01:48:23.377Z,4.47
2023-03-18T01:50:59.412Z,4.47
2023-03-18T01:53:32.040Z,4.50
2023-03-18T01:56:02.676Z,3.70
2023-03-18T01:58:35.151Z,4.10
2023-03-18T02:01:07.359Z,3.70
2023-03-18T02:03:38.027Z,4.03
2023-03-18T02:06:10.350Z,3.33
2023-03-18T02:08:41.160Z,3.80
2023-03-18T02:11:11.799Z,4.27
2023-03-18T02:13:44.194Z,4.10
2023-03-18T02:16:19.746Z,4.20
2023-03-18T02:18:51.994Z,4.03
2023-03-18T02:21:38.308Z,3.90
2023-03-18T02:24:14.751Z,3.77
2023-03-18T02:26:50.841Z,3.70
2023-03-18T02:29:23.524Z,3.70
2023-03-18T02:31:53.535Z,3.73
2023-03-18T02:34:22.996Z,3.93
2023-03-18T02:36:52.674Z,3.90
2023-03-18T02:39:22.135Z,3.67
2023-03-18T02:41:51.664Z,4.20
2023-03-18T02:44:24.123Z,3.70
2023-03-18T02:46:56.874Z,3.70
2023-03-18T02:49:27.679Z,3.97
2023-03-18T02:51:57.450Z,3.73
2023-03-18T02:54:29.282Z,3.83
2023-03-18T02:56:59.424Z,4.07
2023-03-18T02:59:32.588Z,4.30
2023-03-18T03:02:02.161Z,3.80
2023-03-18T03:04:32.019Z,3.77
2023-03-18T03:07:02.208Z,4.47
2023-03-18T03:09:31.659Z,3.70
2023-03-18T03:12:01.053Z,4.07
2023-03-18T03:14:33.081Z,4.30
2023-03-18T03:17:02.672Z,4.17
2023-03-18T03:19:33.292Z,3.90
2023-03-18T03:22:02.814Z,4.60
2023-03-18T03:24:32.271Z,3.33
2023-03-18T03:27:01.670Z,3.73
2023-03-18T03:29:33.683Z,3.57
2023-03-18T03:32:06.874Z,3.77
2023-03-18T03:34:36.661Z,3.63
2023-03-18T03:37:07.089Z,4.10
2023-03-18T03:39:36.676Z,3.97
2023-03-18T03:42:06.431Z,4.47
2023-03-18T03:44:38.424Z,4.10
2023-03-18T03:47:08.455Z,4.63
2023-03-18T03:49:37.874Z,5.13
2023-03-18T03:52:08.255Z,4.83
2023-03-18T03:54:38.258Z,4.57
2023-03-18T03:57:07.992Z,4.03
2023-03-18T03:59:40.070Z,4.30
2023-03-18T04:02:09.836Z,4.73
2023-03-18T04:04:39.437Z,4.70
2023-03-18T04:07:09.049Z,4.47
2023-03-18T04:09:38.463Z,4.40
2023-03-18T04:12:09.748Z,5.40
2023-03-18T04:14:41.733Z,4.83
2023-03-18T04:17:11.550Z,3.80
2023-03-18T04:19:41.183Z,4.77
2023-03-18T04:22:10.687Z,4.40
2023-03-18T04:24:40.229Z,4.57
2023-03-18T04:27:09.624Z,5.63
2023-03-18T04:29:41.797Z,4.73
2023-03-18T04:32:11.204Z,4.50
2023-03-18T04:34:40.940Z,4.50
2023-03-18T04:37:10.592Z,4.53
2023-03-18T04:39:40.073Z,4.57
2023-03-18T04:42:09.880Z,5.80
2023-03-18T04:44:42.017Z,5.00
2023-03-18T04:47:12.619Z,6.43
2023-03-18T04:49:42.110Z,6.40
2023-03-18T04:52:12.560Z,5.60
2023-03-18T04:54:42.807Z,5.80
2023-03-18T04:57:12.688Z,6.20
2023-03-18T04:59:44.746Z,6.27
2023-03-18T05:02:14.480Z,5.60
2023-03-18T05:04:43.980Z,6.30
2023-03-18T05:07:15.584Z,6.40
2023-03-18T05:09:45.557Z,6.23
2023-03-18T05:12:16.894Z,6.60
2023-03-18T05:14:48.914Z,6.30
2023-03-18T05:17:18.722Z,7.10
2023-03-18T05:19:49.652Z,7.57
2023-03-18T05:22:21.104Z,6.70
2023-03-18T05:24:51.128Z,7.87
2023-03-18T05:27:21.824Z,7.73
2023-03-18T05:29:53.880Z,8.13
2023-03-18T05:32:23.290Z,7.30
2023-03-18T05:34:53.036Z,9.10
2023-03-18T05:37:22.530Z,7.03
2023-03-18T05:39:52.462Z,8.10
2023-03-18T05:42:21.871Z,7.40
2023-03-18T05:44:54.629Z,8.90
2023-03-18T05:47:24.150Z,8.83
2023-03-18T05:49:53.549Z,9.60
2023-03-18T05:52:22.989Z,7.97
2023-03-18T05:54:52.748Z,8.27
2023-03-18T05:57:22.401Z,8.30
2023-03-18T05:59:54.412Z,9.70
2023-03-18T06:02:25.002Z,8.97
2023-03-18T06:04:54.523Z,8.70
2023-03-18T06:07:23.913Z,8.40
2023-03-18T06:09:53.690Z,9.10
2023-03-18T06:12:27.332Z,8.93
2023-03-18T06:14:59.608Z,8.17
2023-03-18T06:17:29.184Z,8.70
2023-03-18T06:19:59.145Z,9.93
2023-03-18T06:22:28.662Z,9.67
2023-03-18T06:24:58.071Z,9.70
2023-03-18T06:27:27.502Z,9.43
2023-03-18T06:30:03.005Z,10.63
2023-03-18T06:32:33.060Z,9.03
2023-03-18T06:35:02.506Z,8.90
2023-03-18T06:37:32.531Z,9.30
2023-03-18T06:40:01.907Z,10.10
2023-03-18T06:42:31.560Z,9.20
2023-03-18T06:45:03.582Z,11.13
2023-03-18T06:47:33.017Z,9.30
2023-03-18T06:50:02.461Z,9.67
2023-03-18T06:52:31.909Z,9.33
2023-03-18T06:55:01.298Z,10.90
2023-03-18T06:57:30.694Z,8.67
2023-03-18T07:00:02.800Z,10.50
2023-03-18T07:02:32.208Z,9.10
2023-03-18T07:05:01.839Z,10.00
2023-03-18T07:07:31.272Z,10.40
2023-03-18T07:10:00.722Z,9.90
2023-03-18T07:12:30.208Z,10.10
2023-03-18T07:14:59.618Z,9.37
2023-03-18T07:17:32.072Z,10.40
2023-03-18T07:20:01.501Z,10.10
2023-03-18T07:22:30.883Z,10.33
2023-03-18T07:25:00.235Z,11.00
2023-03-18T07:27:29.886Z,9.67
2023-03-18T07:29:59.804Z,10.07
2023-03-18T07:32:32.598Z,9.67
2023-03-18T07:35:03.049Z,10.50
2023-03-18T07:37:32.473Z,9.90
2023-03-18T07:40:01.939Z,9.97
2023-03-18T07:42:31.306Z,9.60
2023-03-18T07:45:00.777Z,8.80
2023-03-18T07:47:32.753Z,10.03
2023-03-18T07:50:02.654Z,10.10
2023-03-18T07:52:32.148Z,8.73
2023-03-18T07:55:01.796Z,9.00
2023-03-18T07:57:31.628Z,10.73
2023-03-18T08:00:01.247Z,10.30
2023-03-18T08:02:34.043Z,9.60
2023-03-18T08:05:03.553Z,9.10
2023-03-18T08:07:33.379Z,10.30
2023-03-18T08:10:02.880Z,9.43
2023-03-18T08:12:45.317Z,10.60
2023-03-18T08:15:20.803Z,9.20
2023-03-18T08:17:53.865Z,9.50
2023-03-18T08:20:24.414Z,10.67
2023-03-18T08:22:53.889Z,11.03
2023-03-18T08:25:23.737Z,10.13
2023-03-18T08:27:53.603Z,9.00
2023-03-18T08:30:25.429Z,11.07
2023-03-18T08:32:57.540Z,9.73
2023-03-18T08:35:27.020Z,10.17
2023-03-18T08:37:57.106Z,10.23
2023-03-18T08:40:27.043Z,9.90
2023-03-18T08:42:56.834Z,11.10
2023-03-18T08:45:27.370Z,6.50
2023-03-18T08:47:59.545Z,9.70
2023-03-18T08:50:29.877Z,10.87
2023-03-18T08:53:00.578Z,10.00
2023-03-18T08:55:32.251Z,10.30
2023-03-18T08:58:01.846Z,9.90
2023-03-18T09:00:31.327Z,10.67
2023-03-18T09:03:03.569Z,11.20
2023-03-18T09:05:33.325Z,8.20
2023-03-18T09:08:03.806Z,10.10
2023-03-18T09:10:33.338Z,11.63
2023-03-18T09:13:03.520Z,11.20
2023-03-18T09:15:33.338Z,11.33
2023-03-18T09:18:11.474Z,11.93
2023-03-18T09:20:41.637Z,12.37
2023-03-18T09:23:12.384Z,13.10
2023-03-18T09:25:42.636Z,11.87
2023-03-18T09:28:12.654Z,11.27
2023-03-18T09:30:42.485Z,10.40
2023-03-18T09:33:14.750Z,12.10
2023-03-18T09:35:44.815Z,11.57
2023-03-18T09:38:16.582Z,12.77
2023-03-18T09:40:56.299Z,11.70
2023-03-18T09:43:36.667Z,11.73
2023-03-18T09:46:10.701Z,12.10
2023-03-18T09:49:03.851Z,11.70
2023-03-18T09:51:43.361Z,12.37
2023-03-18T09:54:15.985Z,11.53
2023-03-18T09:56:46.349Z,11.97
2023-03-18T09:59:21.518Z,11.60
2023-03-18T10:01:54.243Z,12.23
2023-03-18T10:04:25.584Z,11.70
2023-03-18T10:07:01.219Z,11.67
2023-03-18T10:09:32.974Z,10.70
2023-03-18T10:12:08.786Z,11.73
2023-03-18T10:14:41.422Z,11.77
2023-03-18T10:17:17.926Z,12.17
2023-03-18T10:19:50.835Z,11.60
2023-03-18T10:22:50.147Z,12.60
2023-03-18T10:25:24.030Z,9.97
2023-03-18T10:28:05.337Z,12.30
2023-03-18T10:30:43.832Z,11.77
2023-03-18T10:33:17.624Z,9.93
2023-03-18T10:35:52.575Z,9.73
2023-03-18T10:38:27.103Z,10.07
2023-03-18T10:40:56.968Z,9.97
2023-03-18T10:43:29.713Z,9.10
2023-03-18T10:46:03.753Z,9.63
2023-03-18T10:48:35.711Z,9.60
2023-03-18T10:51:10.508Z,9.37
2023-03-18T10:53:46.428Z,9.20
2023-03-18T10:56:17.297Z,8.33
2023-03-18T10:58:46.965Z,8.93
2023-03-18T11:01:21.787Z,8.60
2023-03-18T11:03:54.693Z,7.30
2023-03-18T11:06:28.520Z,8.37
2023-03-18T11:09:09.209Z,7.10
2023-03-18T11:11:39.246Z,7.30
2023-03-18T11:14:10.960Z,6.73
2023-03-18T11:16:42.539Z,7.03
2023-03-18T11:19:27.976Z,7.10
2023-03-18T11:22:12.133Z,7.10
2023-03-18T11:24:45.073Z,8.00
2023-03-18T11:27:31.345Z,6.97
2023-03-18T11:30:03.126Z,7.90
2023-03-18T11:32:34.190Z,8.03
2023-03-18T11:35:05.360Z,8.10
2023-03-18T11:37:36.556Z,9.50
2023-03-18T11:40:19.506Z,8.53
2023-03-18T11:42:50.479Z,7.70
2023-03-18T11:45:34.295Z,9.07
2023-03-18T11:48:04.789Z,13.60
2023-03-18T11:50:42.133Z,9.30
2023-03-18T11:53:17.128Z,8.60
2023-03-18T11:55:52.704Z,9.00
2023-03-18T11:58:55.452Z,9.50
2023-03-18T12:01:32.898Z,8.10
2023-03-18T12:04:20.591Z,9.67
2023-03-18T12:06:57.689Z,10.70
2023-03-18T12:09:32.012Z,9.47
2023-03-18T12:12:16.636Z,8.97
2023-03-18T12:14:49.839Z,9.17
2023-03-18T12:17:32.854Z,8.70
2023-03-18T12:20:19.707Z,9.97
2023-03-18T12:23:06.591Z,9.00
2023-03-18T12:25:52.776Z,25.90
2023-03-18T12:28:33.644Z,8.90
2023-03-18T12:31:15.807Z,7.77
2023-03-18T12:33:55.203Z,9.40
2023-03-18T12:36:36.282Z,8.97
2023-03-18T12:39:31.052Z,8.40
2023-03-18T12:42:04.919Z,17.50
2023-03-18T12:44:48.556Z,10.43
2023-03-18T12:47:20.996Z,8.93
2023-03-18T12:49:53.408Z,9.40
2023-03-18T12:52:30.231Z,8.40
2023-03-18T12:55:04.552Z,7.10
2023-03-18T12:57:40.697Z,8.03
2023-03-18T13:00:23.920Z,7.07
2023-03-18T13:03:06.133Z,12.97
2023-03-18T13:05:42.839Z,7.63
2023-03-18T13:08:29.195Z,6.53
2023-03-18T13:11:07.529Z,6.07
2023-03-18T13:13:38.361Z,6.13
2023-03-18T13:16:10.955Z,5.70
2023-03-18T13:18:43.547Z,11.30
2023-03-18T13:21:17.096Z,6.20
2023-03-18T13:24:09.305Z,6.67
2023-03-18T13:26:53.037Z,6.20
2023-03-18T13:29:27.336Z,5.87
2023-03-18T13:32:04.727Z,5.70
2023-03-18T13:35:13.391Z,5.97
2023-03-18T13:38:05.265Z,6.30
2023-03-18T13:40:43.584Z,7.10
2023-03-18T13:43:15.626Z,7.00
2023-03-18T13:45:47.852Z,6.50
2023-03-18T13:48:21.139Z,7.20
2023-03-18T13:50:51.729Z,7.00
2023-03-18T13:53:28.002Z,6.40
2023-03-18T13:56:05.276Z,6.20
2023-03-18T13:58:37.435Z,6.23
2023-03-18T14:01:18.941Z,8.80
2023-03-18T14:04:07.756Z,6.50
2023-03-18T14:06:59.508Z,10.33
2023-03-18T14:09:39.230Z,8.20
2023-03-18T14:12:24.092Z,6.50
2023-03-18T14:15:06.583Z,6.33
2023-03-18T14:17:45.908Z,6.80
2023-03-18T14:20:25.119Z,7.10
2023-03-18T14:22:56.128Z,6.60
2023-03-18T14:25:41.782Z,7.43
2023-03-18T14:28:29.527Z,8.67
2023-03-18T14:31:16.368Z,8.17
2023-03-18T14:33:54.556Z,8.53
2023-03-18T14:36:48.067Z,8.00
2023-03-18T14:39:20.616Z,7.00
2023-03-18T14:41:52.420Z,8.10
2023-03-18T14:44:24.918Z,7.57
2023-03-18T14:47:01.884Z,8.00
2023-03-18T14:49:46.727Z,8.10
2023-03-18T14:52:28.456Z,8.37
2023-03-18T14:54:59.969Z,10.30
2023-03-18T14:57:29.619Z,9.57
2023-03-18T15:00:01.894Z,8.30
2023-03-18T15:02:35.668Z,8.33
2023-03-18T15:05:06.556Z,9.00
2023-03-18T15:07:39.898Z,8.57
2023-03-18T15:10:13.251Z,9.23
2023-03-18T15:12:43.123Z,9.37
2023-03-18T15:15:17.710Z,10.33
2023-03-18T15:17:49.184Z,14.67
2023-03-18T15:20:19.508Z,13.90
2023-03-18T15:22:51.685Z,14.43
2023-03-18T15:25:23.298Z,14.07
2023-03-18T15:27:52.744Z,13.80
2023-03-18T15:30:30.990Z,15.07
2023-03-18T15:33:08.176Z,17.33
2023-03-18T15:35:38.494Z,13.30
2023-03-18T15:38:20.726Z,15.57
2023-03-18T15:40:52.904Z,12.83
2023-03-18T15:43:31.064Z,14.13
2023-03-18T15:46:02.773Z,15.20
2023-03-18T15:48:36.126Z,12.27
2023-03-18T15:51:07.756Z,13.03
2023-03-18T15:53:47.872Z,27.33
2023-03-18T15:56:20.950Z,18.87
2023-03-18T15:59:00.719Z,14.17
2023-03-18T16:01:30.155Z,19.23
2023-03-18T16:04:00.670Z,15.53
2023-03-18T16:06:34.352Z,15.20
2023-03-18T16:09:17.192Z,14.70
2023-03-18T16:11:48.476Z,15.53
2023-03-18T16:14:19.365Z,15.20
2023-03-18T16:16:48.901Z,15.17
2023-03-18T16:19:19.472Z,14.37
2023-03-18T16:21:48.861Z,15.50
2023-03-18T16:24:20.990Z,13.40
2023-03-18T16:26:54.105Z,14.57
2023-03-18T16:29:28.619Z,16.30
2023-03-18T16:31:58.305Z,13.50
2023-03-18T16:34:27.959Z,14.97
2023-03-18T16:36:57.615Z,13.87
2023-03-18T16:39:36.192Z,15.20
2023-03-18T16:42:06.976Z,14.50
2023-03-18T16:44:38.087Z,13.93
2023-03-18T16:47:07.927Z,17.53
2023-03-18T16:49:37.508Z,14.97
2023-03-18T16:52:07.376Z,15.07
2023-03-18T16:54:39.377Z,13.97
2023-03-18T16:57:10.122Z,16.17
2023-03-18T16:59:40.493Z,16.50
2023-03-18T17:02:31.735Z,19.40
2023-03-18T17:05:01.596Z,19.17
2023-03-18T17:07:33.570Z,16.67
2023-03-18T17:10:06.371Z,18.03
2023-03-18T17:12:35.808Z,16.40
2023-03-18T17:15:05.960Z,17.43
2023-03-18T17:17:36.833Z,16.03
2023-03-18T17:20:11.563Z,19.93
2023-03-18T17:22:41.064Z,19.60
2023-03-18T17:25:13.680Z,19.83
2023-03-18T17:27:47.229Z,19.60
2023-03-18T17:30:21.546Z,25.13
2023-03-18T17:32:52.040Z,22.50
2023-03-18T17:35:24.227Z,20.60
2023-03-18T17:37:54.633Z,19.23
2023-03-18T17:40:28.923Z,18.50
2023-03-18T17:42:58.449Z,19.77
2023-03-18T17:45:32.247Z,18.23
2023-03-18T17:48:16.450Z,19.80
2023-03-18T17:50:46.447Z,20.50
2023-03-18T17:53:27.294Z,18.83
2023-03-18T17:55:59.738Z,32.43
2023-03-18T17:58:31.971Z,34.30
2023-03-18T18:01:07.904Z,45.43
2023-03-18T18:03:38.830Z,47.10
2023-03-18T18:06:10.133Z,20.03
2023-03-18T18:08:40.276Z,31.60
2023-03-18T18:11:20.500Z,27.93
2023-03-18T18:13:50.400Z,26.20
2023-03-18T18:16:19.965Z,23.23
2023-03-18T18:18:50.127Z,22.33
2023-03-18T18:21:21.384Z,23.57
2023-03-18T18:23:51.336Z,34.80
2023-03-18T18:26:24.150Z,25.40
2023-03-18T18:28:54.477Z,36.27
2023-03-18T18:31:25.700Z,34.53
2023-03-18T18:33:55.856Z,51.97
2023-03-18T18:36:28.088Z,80.10
2023-03-18T18:38:57.561Z,60.23
2023-03-18T18:41:29.949Z,56.23
2023-03-18T18:43:59.316Z,33.77
2023-03-18T18:46:29.352Z,25.00
2023-03-18T18:48:58.800Z,24.80
2023-03-18T18:51:28.330Z,30.77
2023-03-18T18:53:57.979Z,28.73
2023-03-18T18:56:34.134Z,31.83
2023-03-18T18:59:05.249Z,36.00
2023-03-18T19:01:34.607Z,42.60
2023-03-18T19:04:05.142Z,40.80
2023-03-18T19:06:35.462Z,36.50
2023-03-18T19:09:05.972Z,35.80
2023-03-18T19:11:38.177Z,36.47
2023-03-18T19:14:21.843Z,32.33
2023-03-18T19:16:51.576Z,28.70
2023-03-18T19:19:23.205Z,32.10
2023-03-18T19:21:52.741Z,30.40
2023-03-18T19:24:30.594Z,30.07
2023-03-18T19:27:04.170Z,29.60
2023-03-18T19:29:34.099Z,28.03
2023-03-18T19:32:03.904Z,28.93
2023-03-18T19:34:35.334Z,31.07
2023-03-18T19:37:07.929Z,31.10
2023-03-18T19:39:38.188Z,29.40
2023-03-18T19:42:15.111Z,24.43
2023-03-18T19:44:45.486Z,22.50
2023-03-18T19:47:20.937Z,21.60
2023-03-18T19:49:50.392Z,22.03
2023-03-18T19:52:21.972Z,23.53
2023-03-18T19:54:52.180Z,22.57
2023-03-18T19:57:27.416Z,21.13
2023-03-18T19:59:59.029Z,22.60
2023-03-18T20:02:31.838Z,23.77
2023-03-18T20:05:02.960Z,23.30
2023-03-18T20:07:34.138Z,23.77
2023-03-18T20:10:03.585Z,25.27
2023-03-18T20:12:38.013Z,23.17
2023-03-18T20:15:08.282Z,24.10
2023-03-18T20:17:40.425Z,23.23
2023-03-18T20:20:16.467Z,22.93
2023-03-18T20:22:48.411Z,23.87
2023-03-18T20:25:23.163Z,24.30
2023-03-18T20:27:56.566Z,24.43
2023-03-18T20:30:28.799Z,31.00
2023-03-18T20:33:00.018Z,30.37
2023-03-18T20:35:32.142Z,30.37
2023-03-18T20:38:03.595Z,28.57
2023-03-18T20:40:34.165Z,27.70
2023-03-18T20:43:06.230Z,30.50
2023-03-18T20:45:35.963Z,26.90
2023-03-18T20:48:05.530Z,32.07
2023-03-18T20:50:35.027Z,24.70
2023-03-18T20:53:05.074Z,25.37
2023-03-18T20:55:36.424Z,26.30
2023-03-18T20:58:09.387Z,28.93
2023-03-18T21:00:38.855Z,26.27
2023-03-18T21:03:12.940Z,24.27
2023-03-18T21:05:42.496Z,25.57
2023-03-18T21:08:12.145Z,26.80
2023-03-18T21:10:42.468Z,27.33
2023-03-18T21:13:29.614Z,23.13
2023-03-18T21:15:59.844Z,24.07
2023-03-18T21:18:29.712Z,26.20
2023-03-18T21:20:59.337Z,72.20
2023-03-18T21:23:31.795Z,23.20
2023-03-18T21:26:02.068Z,23.90
2023-03-18T21:28:34.386Z,22.90
2023-03-18T21:31:04.916Z,22.90
2023-03-18T21:33:35.615Z,21.10
2023-03-18T21:36:06.645Z,23.23
2023-03-18T21:38:37.133Z,22.50
2023-03-18T21:41:08.177Z,20.93
2023-03-18T21:43:41.370Z,20.63
2023-03-18T21:46:15.248Z,20.00
2023-03-18T21:48:44.769Z,19.13
2023-03-18T21:51:37.567Z,19.30
2023-03-18T21:54:08.638Z,18.73
2023-03-18T21:56:38.013Z,20.80
2023-03-18T21:59:10.044Z,20.23
2023-03-18T22:01:39.527Z,18.57
2023-03-18T22:04:09.163Z,18.13
2023-03-18T22:06:38.604Z,19.37
2023-03-18T22:09:08.721Z,19.53
2023-03-18T22:11:38.189Z,18.97
2023-03-18T22:14:11.813Z,18.47
2023-03-18T22:16:41.234Z,17.87
2023-03-18T22:19:13.223Z,19.67
2023-03-18T22:21:42.679Z,18.90
2023-03-18T22:24:15.824Z,17.50
2023-03-18T22:26:45.322Z,17.87
2023-03-18T22:29:17.901Z,17.77
2023-03-18T22:31:47.375Z,16.83
2023-03-18T22:34:23.680Z,17.77
2023-03-18T22:36:53.072Z,17.90
2023-03-18T22:39:22.486Z,17.30
2023-03-18T22:41:51.902Z,16.20
2023-03-18T22:44:26.225Z,17.50
2023-03-18T22:46:55.823Z,16.93
2023-03-18T22:49:25.420Z,17.07
2023-03-18T22:51:54.810Z,16.60
2023-03-18T22:54:26.265Z,18.20
2023-03-18T22:56:57.783Z,16.37
2023-03-18T22:59:31.035Z,17.20
2023-03-18T23:02:01.793Z,15.47
2023-03-18T23:04:31.944Z,16.13
2023-03-18T23:07:01.543Z,15.97
2023-03-18T23:09:31.689Z,16.20
2023-03-18T23:12:01.110Z,16.43
2023-03-18T23:14:33.459Z,15.33
2023-03-18T23:17:02.862Z,17.60
2023-03-18T23:19:32.480Z,20.43
2023-03-18T23:22:01.872Z,18.90
2023-03-18T23:24:31.656Z,18.80
2023-03-18T23:27:01.025Z,17.17
2023-03-18T23:29:33.068Z,15.27
2023-03-18T23:32:02.508Z,19.20
2023-03-18T23:34:31.905Z,18.57
2023-03-18T23:37:01.332Z,15.63
2023-03-18T23:39:31.205Z,17.23
2023-03-18T23:42:00.666Z,18.13
2023-03-18T23:44:32.853Z,16.80
2023-03-18T23:47:02.216Z,18.60
2023-03-18T23:49:32.605Z,16.70
2023-03-18T23:52:02.208Z,15.40
2023-03-18T23:54:34.903Z,16.30
2023-03-18T23:57:04.558Z,15.80
2023-03-18T23:59:36.624Z,15.70
